sensor_id;sensor_type;location;lat;lon;timestamp;pressure;altitude;pressure_sealevel;temperature;humidity
20394;BME280;10356;50.544;9.642;2023-02-03T00:01:30;99139.69;;;6.08;100.00
20394;BME280;10356;50.544;9.642;2023-02-03T00:03:57;99131.97;;;6.06;100.00
20394;BME280;10356;50.544;9.642;2023-02-03T00:06:23;99132.06;;;6.05;100.00
20394;BME280;10356;50.544;9.642;2023-02-03T00:08:52;99137.22;;;6.05;100.00
20394;BME280;10356;50.544;9.642;2023-02-03T00:11:20;99136.19;;;6.09;100.00
20394;BME280;10356;50.544;9.642;2023-02-03T00:13:47;99134.28;;;6.12;100.00
20394;BME280;10356;50.544;9.642;2023-02-03T00:16:14;99123.03;;;6.13;100.00
20394;BME280;10356;50.544;9.642;2023-02-03T00:18:41;99128.56;;;6.06;100.00
20394;BME280;10356;50.544;9.642;2023-02-03T00:21:07;99129.41;;;6.06;100.00
20394;BME280;10356;50.544;9.642;2023-02-03T00:23:34;99135.34;;;6.08;100.00
20394;BME280;10356;50.544;9.642;2023-02-03T00:26:06;99145.00;;;6.05;100.00
20394;BME280;10356;50.544;9.642;2023-02-03T00:28:32;99146.81;;;6.03;100.00
20394;BME280;10356;50.544;9.642;2023-02-03T00:30:59;99141.63;;;6.03;100.00
20394;BME280;10356;50.544;9.642;2023-02-03T00:33:26;99139.19;;;6.00;100.00
20394;BME280;10356;50.544;9.642;2023-02-03T00:35:53;99136.81;;;5.95;100.00
20394;BME280;10356;50.544;9.642;2023-02-03T00:38:19;99138.56;;;5.94;100.00
20394;BME280;10356;50.544;9.642;2023-02-03T00:40:51;99128.19;;;5.94;100.00
20394;BME280;10356;50.544;9.642;2023-02-03T00:43:17;99125.69;;;5.93;100.00
20394;BME280;10356;50.544;9.642;2023-02-03T00:45:44;99125.78;;;5.91;100.00
20394;BME280;10356;50.544;9.642;2023-02-03T00:48:10;99107.94;;;5.85;100.00
20394;BME280;10356;50.544;9.642;2023-02-03T00:50:38;99110.25;;;5.91;100.00
20394;BME280;10356;50.544;9.642;2023-02-03T00:53:05;99109.50;;;5.89;100.00
20394;BME280;10356;50.544;9.642;2023-02-03T00:55:31;99098.09;;;5.93;100.00
20394;BME280;10356;50.544;9.642;2023-02-03T00:57:57;99089.94;;;5.82;100.00
20394;BME280;10356;50.544;9.642;2023-02-03T01:00:24;99082.16;;;5.82;100.00
20394;BME280;10356;50.544;9.642;2023-02-03T01:02:50;99090.72;;;5.84;100.00
20394;BME280;10356;50.544;9.642;2023-02-03T01:05:17;99096.16;;;5.78;100.00
20394;BME280;10356;50.544;9.642;2023-02-03T01:07:45;99098.22;;;5.70;100.00
20394;BME280;10356;50.544;9.642;2023-02-03T01:10:11;99075.72;;;5.72;100.00
20394;BME280;10356;50.544;9.642;2023-02-03T01:12:39;99065.53;;;5.69;100.00
20394;BME280;10356;50.544;9.642;2023-02-03T01:15:06;99076.59;;;5.73;100.00
20394;BME280;10356;50.544;9.642;2023-02-03T01:17:33;99092.66;;;5.79;100.00
20394;BME280;10356;50.544;9.642;2023-02-03T01:19:59;99093.84;;;5.72;100.00
20394;BME280;10356;50.544;9.642;2023-02-03T01:22:28;99099.94;;;5.71;100.00
20394;BME280;10356;50.544;9.642;2023-02-03T01:24:56;99085.50;;;5.66;100.00
20394;BME280;10356;50.544;9.642;2023-02-03T01:27:22;99074.47;;;5.62;100.00
20394;BME280;10356;50.544;9.642;2023-02-03T01:29:49;99080.84;;;5.55;100.00
20394;BME280;10356;50.544;9.642;2023-02-03T01:32:15;99082.50;;;5.56;100.00
20394;BME280;10356;50.544;9.642;2023-02-03T01:34:42;99086.63;;;5.60;100.00
20394;BME280;10356;50.544;9.642;2023-02-03T01:37:08;99072.72;;;5.63;100.00
20394;BME280;10356;50.544;9.642;2023-02-03T01:39:35;99081.38;;;5.62;100.00
20394;BME280;10356;50.544;9.642;2023-02-03T01:42:02;99073.78;;;5.59;100.00
20394;BME280;10356;50.544;9.642;2023-02-03T01:44:42;99073.44;;;5.66;100.00
20394;BME280;10356;50.544;9.642;2023-02-03T01:47:16;99058.97;;;5.62;100.00
20394;BME280;10356;50.544;9.642;2023-02-03T01:49:47;99062.59;;;5.58;100.00
20394;BME280;10356;50.544;9.642;2023-02-03T01:52:15;99057.41;;;5.58;100.00
20394;BME280;10356;50.544;9.642;2023-02-03T01:54:44;99054.72;;;5.61;100.00
20394;BME280;10356;50.544;9.642;2023-02-03T01:57:18;99055.13;;;5.71;100.00
20394;BME280;10356;50.544;9.642;2023-02-03T01:59:48;99057.72;;;5.71;100.00
20394;BME280;10356;50.544;9.642;2023-02-03T02:02:17;99065.75;;;5.65;100.00
20394;BME280;10356;50.544;9.642;2023-02-03T02:04:51;99058.47;;;5.73;100.00
20394;BME280;10356;50.544;9.642;2023-02-03T02:07:19;99060.03;;;5.77;100.00
20394;BME280;10356;50.544;9.642;2023-02-03T02:09:45;99060.53;;;5.85;100.00
20394;BME280;10356;50.544;9.642;2023-02-03T02:12:12;99054.00;;;5.76;100.00
20394;BME280;10356;50.544;9.642;2023-02-03T02:14:41;99058.56;;;5.71;100.00
20394;BME280;10356;50.544;9.642;2023-02-03T02:17:13;99053.22;;;5.74;100.00
20394;BME280;10356;50.544;9.642;2023-02-03T02:22:50;99034.28;;;5.74;100.00
20394;BME280;10356;50.544;9.642;2023-02-03T02:25:47;99040.72;;;5.85;100.00
20394;BME280;10356;50.544;9.642;2023-02-03T02:28:45;99045.13;;;5.82;100.00
20394;BME280;10356;50.544;9.642;2023-02-03T02:31:40;99056.47;;;5.79;100.00
20394;BME280;10356;50.544;9.642;2023-02-03T02:34:13;99048.22;;;5.90;100.00
20394;BME280;10356;50.544;9.642;2023-02-03T02:36:53;99058.03;;;5.83;100.00
20394;BME280;10356;50.544;9.642;2023-02-03T02:39:30;99053.63;;;5.85;100.00
20394;BME280;10356;50.544;9.642;2023-02-03T02:42:06;99062.97;;;6.07;100.00
20394;BME280;10356;50.544;9.642;2023-02-03T02:44:37;99056.97;;;6.06;100.00
20394;BME280;10356;50.544;9.642;2023-02-03T02:47:11;99061.31;;;6.06;100.00
20394;BME280;10356;50.544;9.642;2023-02-03T02:49:43;99065.44;;;6.10;100.00
20394;BME280;10356;50.544;9.642;2023-02-03T02:52:14;99079.00;;;6.15;100.00
20394;BME280;10356;50.544;9.642;2023-02-03T02:54:44;99061.16;;;6.09;100.00
20394;BME280;10356;50.544;9.642;2023-02-03T02:57:13;99054.38;;;6.06;100.00
20394;BME280;10356;50.544;9.642;2023-02-03T02:59:43;99067.38;;;6.05;100.00
20394;BME280;10356;50.544;9.642;2023-02-03T03:02:11;99066.81;;;5.98;100.00
20394;BME280;10356;50.544;9.642;2023-02-03T03:04:38;99059.91;;;5.99;100.00
20394;BME280;10356;50.544;9.642;2023-02-03T03:07:11;99069.66;;;5.93;100.00
20394;BME280;10356;50.544;9.642;2023-02-03T03:09:41;99054.13;;;5.93;100.00
20394;BME280;10356;50.544;9.642;2023-02-03T03:12:11;99057.69;;;5.91;100.00
20394;BME280;10356;50.544;9.642;2023-02-03T03:14:43;99066.28;;;5.91;100.00
20394;BME280;10356;50.544;9.642;2023-02-03T03:17:15;99057.97;;;5.85;100.00
20394;BME280;10356;50.544;9.642;2023-02-03T03:19:46;99053.97;;;5.97;100.00
20394;BME280;10356;50.544;9.642;2023-02-03T03:22:15;99048.59;;;6.01;100.00
20394;BME280;10356;50.544;9.642;2023-02-03T03:24:46;99021.75;;;6.04;100.00
20394;BME280;10356;50.544;9.642;2023-02-03T03:27:15;99016.72;;;6.01;100.00
20394;BME280;10356;50.544;9.642;2023-02-03T03:29:45;99033.75;;;6.05;100.00
20394;BME280;10356;50.544;9.642;2023-02-03T03:32:15;99030.31;;;6.04;100.00
20394;BME280;10356;50.544;9.642;2023-02-03T03:34:41;99022.66;;;6.03;100.00
20394;BME280;10356;50.544;9.642;2023-02-03T03:37:11;99011.53;;;6.01;100.00
20394;BME280;10356;50.544;9.642;2023-02-03T03:39:44;99029.63;;;6.01;100.00
20394;BME280;10356;50.544;9.642;2023-02-03T03:42:18;99020.06;;;6.03;100.00
20394;BME280;10356;50.544;9.642;2023-02-03T03:44:51;99017.75;;;5.97;100.00
20394;BME280;10356;50.544;9.642;2023-02-03T03:47:26;99002.44;;;5.92;100.00
20394;BME280;10356;50.544;9.642;2023-02-03T03:49:57;98994.94;;;5.87;100.00
20394;BME280;10356;50.544;9.642;2023-02-03T03:52:29;98985.34;;;5.89;100.00
20394;BME280;10356;50.544;9.642;2023-02-03T03:54:59;98997.22;;;5.93;100.00
20394;BME280;10356;50.544;9.642;2023-02-03T03:57:30;99011.06;;;5.92;100.00
20394;BME280;10356;50.544;9.642;2023-02-03T04:00:01;99020.22;;;6.00;100.00
20394;BME280;10356;50.544;9.642;2023-02-03T04:02:31;99011.44;;;6.02;100.00
20394;BME280;10356;50.544;9.642;2023-02-03T04:05:00;99018.88;;;6.10;100.00
20394;BME280;10356;50.544;9.642;2023-02-03T04:07:36;99025.88;;;6.08;100.00
20394;BME280;10356;50.544;9.642;2023-02-03T04:10:06;99023.03;;;6.12;100.00
20394;BME280;10356;50.544;9.642;2023-02-03T04:12:38;99010.09;;;6.12;100.00
20394;BME280;10356;50.544;9.642;2023-02-03T04:15:04;99006.53;;;6.15;100.00
20394;BME280;10356;50.544;9.642;2023-02-03T04:17:32;99020.94;;;6.20;100.00
20394;BME280;10356;50.544;9.642;2023-02-03T04:20:00;99033.09;;;6.18;100.00
20394;BME280;10356;50.544;9.642;2023-02-03T04:22:27;99046.13;;;6.17;100.00
20394;BME280;10356;50.544;9.642;2023-02-03T04:24:53;99044.00;;;6.25;100.00
20394;BME280;10356;50.544;9.642;2023-02-03T04:27:23;99049.19;;;6.25;100.00
20394;BME280;10356;50.544;9.642;2023-02-03T04:29:49;99045.47;;;6.30;100.00
20394;BME280;10356;50.544;9.642;2023-02-03T04:32:16;99039.53;;;6.28;100.00
20394;BME280;10356;50.544;9.642;2023-02-03T04:34:44;99038.91;;;6.23;100.00
20394;BME280;10356;50.544;9.642;2023-02-03T04:37:11;99031.91;;;6.25;100.00
20394;BME280;10356;50.544;9.642;2023-02-03T04:39:37;99029.41;;;6.24;100.00
20394;BME280;10356;50.544;9.642;2023-02-03T04:42:04;99024.72;;;6.32;100.00
20394;BME280;10356;50.544;9.642;2023-02-03T04:44:30;99028.34;;;6.28;100.00
20394;BME280;10356;50.544;9.642;2023-02-03T04:46:57;99026.88;;;6.22;100.00
20394;BME280;10356;50.544;9.642;2023-02-03T04:49:23;99035.94;;;6.14;100.00
20394;BME280;10356;50.544;9.642;2023-02-03T04:51:51;99042.94;;;6.12;100.00
20394;BME280;10356;50.544;9.642;2023-02-03T04:54:17;99023.13;;;6.11;100.00
20394;BME280;10356;50.544;9.642;2023-02-03T04:56:44;99017.19;;;6.09;100.00
20394;BME280;10356;50.544;9.642;2023-02-03T04:59:10;98999.00;;;6.10;100.00
20394;BME280;10356;50.544;9.642;2023-02-03T05:01:37;98997.72;;;6.19;100.00
20394;BME280;10356;50.544;9.642;2023-02-03T05:04:03;99000.94;;;6.24;100.00
20394;BME280;10356;50.544;9.642;2023-02-03T05:06:30;98990.22;;;6.31;100.00
20394;BME280;10356;50.544;9.642;2023-02-03T05:08:58;98985.13;;;6.30;100.00
20394;BME280;10356;50.544;9.642;2023-02-03T05:11:25;98989.66;;;6.25;100.00
20394;BME280;10356;50.544;9.642;2023-02-03T05:13:53;98990.44;;;6.27;100.00
20394;BME280;10356;50.544;9.642;2023-02-03T05:16:19;98997.22;;;6.29;100.00
20394;BME280;10356;50.544;9.642;2023-02-03T05:18:46;98996.25;;;6.32;100.00
20394;BME280;10356;50.544;9.642;2023-02-03T05:21:13;98987.63;;;6.31;100.00
20394;BME280;10356;50.544;9.642;2023-02-03T05:23:40;98979.78;;;6.33;100.00
20394;BME280;10356;50.544;9.642;2023-02-03T05:26:08;98970.72;;;6.24;100.00
20394;BME280;10356;50.544;9.642;2023-02-03T05:28:34;98961.84;;;6.30;100.00
20394;BME280;10356;50.544;9.642;2023-02-03T05:31:01;98952.84;;;6.20;100.00
20394;BME280;10356;50.544;9.642;2023-02-03T05:33:28;98961.66;;;6.33;100.00
20394;BME280;10356;50.544;9.642;2023-02-03T05:35:55;98956.56;;;6.31;100.00
20394;BME280;10356;50.544;9.642;2023-02-03T05:38:22;98957.78;;;6.41;100.00
20394;BME280;10356;50.544;9.642;2023-02-03T05:40:50;98971.81;;;6.37;100.00
20394;BME280;10356;50.544;9.642;2023-02-03T05:43:36;98957.13;;;6.38;100.00
20394;BME280;10356;50.544;9.642;2023-02-03T05:46:04;98952.63;;;6.41;100.00
20394;BME280;10356;50.544;9.642;2023-02-03T05:48:31;98941.59;;;6.38;100.00
20394;BME280;10356;50.544;9.642;2023-02-03T05:50:58;98954.66;;;6.35;100.00
20394;BME280;10356;50.544;9.642;2023-02-03T05:53:25;98952.84;;;6.37;100.00
20394;BME280;10356;50.544;9.642;2023-02-03T05:55:52;98960.59;;;6.37;100.00
20394;BME280;10356;50.544;9.642;2023-02-03T05:58:19;98965.19;;;6.32;100.00
20394;BME280;10356;50.544;9.642;2023-02-03T06:00:47;98939.34;;;6.30;100.00
20394;BME280;10356;50.544;9.642;2023-02-03T06:03:13;98949.50;;;6.18;100.00
20394;BME280;10356;50.544;9.642;2023-02-03T06:05:40;98950.41;;;6.34;100.00
20394;BME280;10356;50.544;9.642;2023-02-03T06:08:07;98955.59;;;6.34;100.00
20394;BME280;10356;50.544;9.642;2023-02-03T06:10:34;98969.44;;;6.33;100.00
20394;BME280;10356;50.544;9.642;2023-02-03T06:13:07;98980.25;;;6.24;100.00
20394;BME280;10356;50.544;9.642;2023-02-03T06:15:34;98990.59;;;6.24;100.00
20394;BME280;10356;50.544;9.642;2023-02-03T06:18:02;98984.50;;;6.25;100.00
20394;BME280;10356;50.544;9.642;2023-02-03T06:20:29;98979.47;;;6.22;100.00
20394;BME280;10356;50.544;9.642;2023-02-03T06:22:55;98996.47;;;6.27;100.00
20394;BME280;10356;50.544;9.642;2023-02-03T06:25:22;98978.41;;;6.26;100.00
20394;BME280;10356;50.544;9.642;2023-02-03T06:27:49;98973.72;;;6.34;100.00
20394;BME280;10356;50.544;9.642;2023-02-03T06:30:16;98978.88;;;6.34;100.00
20394;BME280;10356;50.544;9.642;2023-02-03T06:32:42;98981.00;;;6.26;100.00
20394;BME280;10356;50.544;9.642;2023-02-03T06:35:10;98984.97;;;6.33;100.00
20394;BME280;10356;50.544;9.642;2023-02-03T06:37:37;98994.25;;;6.37;100.00
20394;BME280;10356;50.544;9.642;2023-02-03T06:40:04;98987.53;;;6.33;100.00
20394;BME280;10356;50.544;9.642;2023-02-03T06:42:31;98988.59;;;6.29;100.00
20394;BME280;10356;50.544;9.642;2023-02-03T06:44:58;98992.59;;;6.36;100.00
20394;BME280;10356;50.544;9.642;2023-02-03T06:47:24;98994.34;;;6.35;100.00
20394;BME280;10356;50.544;9.642;2023-02-03T06:49:51;98985.13;;;6.30;100.00
20394;BME280;10356;50.544;9.642;2023-02-03T06:52:19;98990.00;;;6.36;100.00
20394;BME280;10356;50.544;9.642;2023-02-03T06:54:45;98985.41;;;6.24;100.00
20394;BME280;10356;50.544;9.642;2023-02-03T06:57:12;99004.81;;;6.32;100.00
20394;BME280;10356;50.544;9.642;2023-02-03T06:59:38;98991.22;;;6.46;100.00
20394;BME280;10356;50.544;9.642;2023-02-03T07:02:05;98984.22;;;6.48;100.00
20394;BME280;10356;50.544;9.642;2023-02-03T07:04:31;98973.78;;;6.49;100.00
20394;BME280;10356;50.544;9.642;2023-02-03T07:06:58;98980.72;;;6.49;100.00
20394;BME280;10356;50.544;9.642;2023-02-03T07:09:26;98983.47;;;6.46;100.00
20394;BME280;10356;50.544;9.642;2023-02-03T07:11:52;98982.22;;;6.53;100.00
20394;BME280;10356;50.544;9.642;2023-02-03T07:14:19;98980.41;;;6.55;100.00
20394;BME280;10356;50.544;9.642;2023-02-03T07:16:45;98982.53;;;6.47;100.00
20394;BME280;10356;50.544;9.642;2023-02-03T07:19:12;98986.81;;;6.48;100.00
20394;BME280;10356;50.544;9.642;2023-02-03T07:21:38;98987.56;;;6.50;100.00
20394;BME280;10356;50.544;9.642;2023-02-03T07:24:05;98992.53;;;6.54;100.00
20394;BME280;10356;50.544;9.642;2023-02-03T07:26:33;98987.41;;;6.53;100.00
20394;BME280;10356;50.544;9.642;2023-02-03T07:28:59;98973.84;;;6.65;100.00
20394;BME280;10356;50.544;9.642;2023-02-03T07:31:26;98983.75;;;6.57;100.00
20394;BME280;10356;50.544;9.642;2023-02-03T07:33:52;98976.91;;;6.56;100.00
20394;BME280;10356;50.544;9.642;2023-02-03T07:36:19;98982.56;;;6.64;100.00
20394;BME280;10356;50.544;9.642;2023-02-03T07:38:45;98980.28;;;6.58;100.00
20394;BME280;10356;50.544;9.642;2023-02-03T07:41:12;98974.88;;;6.62;100.00
20394;BME280;10356;50.544;9.642;2023-02-03T07:43:39;98965.50;;;6.60;100.00
20394;BME280;10356;50.544;9.642;2023-02-03T07:46:06;98966.78;;;6.68;100.00
20394;BME280;10356;50.544;9.642;2023-02-03T07:48:32;98961.38;;;6.73;100.00
20394;BME280;10356;50.544;9.642;2023-02-03T07:50:59;98966.72;;;6.70;100.00
20394;BME280;10356;50.544;9.642;2023-02-03T07:53:25;98959.78;;;6.70;100.00
20394;BME280;10356;50.544;9.642;2023-02-03T07:55:52;98952.06;;;6.69;100.00
20394;BME280;10356;50.544;9.642;2023-02-03T07:58:19;98951.09;;;6.71;100.00
20394;BME280;10356;50.544;9.642;2023-02-03T08:00:46;98949.78;;;6.80;100.00
20394;BME280;10356;50.544;9.642;2023-02-03T08:03:13;98952.38;;;6.80;100.00
20394;BME280;10356;50.544;9.642;2023-02-03T08:05:39;98941.09;;;6.81;100.00
20394;BME280;10356;50.544;9.642;2023-02-03T08:08:06;98957.38;;;6.83;100.00
20394;BME280;10356;50.544;9.642;2023-02-03T08:10:33;98954.13;;;6.79;100.00
20394;BME280;10356;50.544;9.642;2023-02-03T08:13:00;98945.47;;;6.81;100.00
20394;BME280;10356;50.544;9.642;2023-02-03T08:15:26;98953.28;;;6.79;100.00
20394;BME280;10356;50.544;9.642;2023-02-03T08:17:54;98945.47;;;6.81;100.00
20394;BME280;10356;50.544;9.642;2023-02-03T08:20:21;98953.28;;;6.79;100.00
20394;BME280;10356;50.544;9.642;2023-02-03T08:22:47;98959.47;;;6.76;100.00
20394;BME280;10356;50.544;9.642;2023-02-03T08:25:14;98950.88;;;6.76;100.00
20394;BME280;10356;50.544;9.642;2023-02-03T08:27:40;98948.41;;;6.73;100.00
20394;BME280;10356;50.544;9.642;2023-02-03T08:30:10;98948.28;;;6.76;100.00
20394;BME280;10356;50.544;9.642;2023-02-03T08:32:37;98946.75;;;6.72;100.00
20394;BME280;10356;50.544;9.642;2023-02-03T08:35:06;98946.75;;;6.72;100.00
20394;BME280;10356;50.544;9.642;2023-02-03T08:37:32;98932.72;;;6.76;100.00
20394;BME280;10356;50.544;9.642;2023-02-03T08:39:59;98939.88;;;6.71;100.00
20394;BME280;10356;50.544;9.642;2023-02-03T08:42:26;98948.41;;;6.73;100.00
20394;BME280;10356;50.544;9.642;2023-02-03T08:44:52;98936.72;;;6.66;100.00
20394;BME280;10356;50.544;9.642;2023-02-03T08:47:19;98934.38;;;6.77;100.00
20394;BME280;10356;50.544;9.642;2023-02-03T08:49:46;98930.22;;;6.74;100.00
20394;BME280;10356;50.544;9.642;2023-02-03T08:52:14;98936.09;;;6.78;100.00
20394;BME280;10356;50.544;9.642;2023-02-03T08:54:41;98927.56;;;6.76;100.00
20394;BME280;10356;50.544;9.642;2023-02-03T08:57:07;98937.75;;;6.79;100.00
20394;BME280;10356;50.544;9.642;2023-02-03T08:59:41;98941.94;;;6.82;100.00
20394;BME280;10356;50.544;9.642;2023-02-03T09:02:12;98942.09;;;6.78;100.00
20394;BME280;10356;50.544;9.642;2023-02-03T09:04:39;98939.34;;;6.82;100.00
20394;BME280;10356;50.544;9.642;2023-02-03T09:07:06;98941.25;;;6.78;100.00
20394;BME280;10356;50.544;9.642;2023-02-03T09:09:33;98935.91;;;6.81;100.00
20394;BME280;10356;50.544;9.642;2023-02-03T09:12:00;98938.06;;;6.73;100.00
20394;BME280;10356;50.544;9.642;2023-02-03T09:14:30;98941.09;;;6.81;100.00
20394;BME280;10356;50.544;9.642;2023-02-03T09:16:57;98939.25;;;6.83;100.00
20394;BME280;10356;50.544;9.642;2023-02-03T09:19:24;98937.44;;;6.85;100.00
20394;BME280;10356;50.544;9.642;2023-02-03T09:21:50;98941.84;;;6.83;100.00
20394;BME280;10356;50.544;9.642;2023-02-03T09:24:17;98928.59;;;6.89;100.00
20394;BME280;10356;50.544;9.642;2023-02-03T09:26:45;98929.34;;;6.91;100.00
20394;BME280;10356;50.544;9.642;2023-02-03T09:29:11;98931.94;;;6.91;100.00
20394;BME280;10356;50.544;9.642;2023-02-03T09:31:38;98937.81;;;6.95;100.00
20394;BME280;10356;50.544;9.642;2023-02-03T09:34:04;98940.63;;;6.90;100.00
20394;BME280;10356;50.544;9.642;2023-02-03T09:36:31;98937.28;;;6.88;100.00
20394;BME280;10356;50.544;9.642;2023-02-03T09:38:58;98945.81;;;6.90;100.00
20394;BME280;10356;50.544;9.642;2023-02-03T09:41:36;98938.63;;;6.95;100.00
20394;BME280;10356;50.544;9.642;2023-02-03T09:44:10;98944.50;;;6.99;100.00
20394;BME280;10356;50.544;9.642;2023-02-03T09:46:41;98943.66;;;6.98;100.00
20394;BME280;10356;50.544;9.642;2023-02-03T09:49:14;98941.47;;;6.91;100.00
20394;BME280;10356;50.544;9.642;2023-02-03T09:51:44;98941.97;;;6.97;100.00
20394;BME280;10356;50.544;9.642;2023-02-03T09:54:17;98927.13;;;7.01;100.00
20394;BME280;10356;50.544;9.642;2023-02-03T09:56:46;98927.94;;;7.01;100.00
20394;BME280;10356;50.544;9.642;2023-02-03T09:59:18;98933.75;;;6.89;100.00
20394;BME280;10356;50.544;9.642;2023-02-03T10:01:51;98924.78;;;6.96;100.00
20394;BME280;10356;50.544;9.642;2023-02-03T10:04:27;98930.84;;;6.95;100.00
20394;BME280;10356;50.544;9.642;2023-02-03T10:07:03;98916.91;;;6.98;100.00
20394;BME280;10356;50.544;9.642;2023-02-03T10:09:45;98915.31;;;6.95;100.00
20394;BME280;10356;50.544;9.642;2023-02-03T10:12:22;98906.72;;;6.95;100.00
20394;BME280;10356;50.544;9.642;2023-02-03T10:15:02;98901.59;;;6.93;100.00
20394;BME280;10356;50.544;9.642;2023-02-03T10:17:37;98904.19;;;6.93;100.00
20394;BME280;10356;50.544;9.642;2023-02-03T10:20:11;98893.16;;;6.90;100.00
20394;BME280;10356;50.544;9.642;2023-02-03T10:22:42;98893.69;;;6.96;100.00
20394;BME280;10356;50.544;9.642;2023-02-03T10:25:17;98906.03;;;6.91;100.00
20394;BME280;10356;50.544;9.642;2023-02-03T10:27:49;98899.28;;;6.89;100.00
20394;BME280;10356;50.544;9.642;2023-02-03T10:30:20;98900.84;;;6.91;100.00
20394;BME280;10356;50.544;9.642;2023-02-03T10:32:48;98899.00;;;6.93;100.00
20394;BME280;10356;50.544;9.642;2023-02-03T10:35:17;98895.84;;;6.88;100.00
20394;BME280;10356;50.544;9.642;2023-02-03T10:37:48;98901.38;;;6.98;100.00
20394;BME280;10356;50.544;9.642;2023-02-03T10:40:16;98892.84;;;6.96;100.00
20394;BME280;10356;50.544;9.642;2023-02-03T10:42:43;98894.59;;;6.95;100.00
20394;BME280;10356;50.544;9.642;2023-02-03T10:45:35;98899.44;;;7.01;100.00
20394;BME280;10356;50.544;9.642;2023-02-03T10:48:03;98895.34;;;6.97;100.00
20394;BME280;10356;50.544;9.642;2023-02-03T10:50:31;98893.50;;;6.99;100.00
20394;BME280;10356;50.544;9.642;2023-02-03T10:53:19;98898.38;;;7.05;100.00
20394;BME280;10356;50.544;9.642;2023-02-03T10:55:49;98893.03;;;7.08;100.00
20394;BME280;10356;50.544;9.642;2023-02-03T10:58:22;98909.47;;;7.07;100.00
20394;BME280;10356;50.544;9.642;2023-02-03T11:00:56;98908.69;;;7.07;100.00
20394;BME280;10356;50.544;9.642;2023-02-03T11:03:25;98906.00;;;7.08;100.00
20394;BME280;10356;50.544;9.642;2023-02-03T11:06:05;98900.19;;;7.03;100.00
20394;BME280;10356;50.544;9.642;2023-02-03T11:08:32;98893.19;;;7.05;100.00
20394;BME280;10356;50.544;9.642;2023-02-03T11:11:04;98900.72;;;7.10;100.00
20394;BME280;10356;50.544;9.642;2023-02-03T11:13:31;98906.56;;;7.13;100.00
20394;BME280;10356;50.544;9.642;2023-02-03T11:16:01;98898.97;;;7.10;100.00
20394;BME280;10356;50.544;9.642;2023-02-03T11:18:35;98895.63;;;7.08;100.00
20394;BME280;10356;50.544;9.642;2023-02-03T11:21:06;98894.69;;;7.09;100.00
20394;BME280;10356;50.544;9.642;2023-02-03T11:23:34;98897.72;;;7.17;100.00
20394;BME280;10356;50.544;9.642;2023-02-03T11:26:09;98886.13;;;7.24;100.00
20394;BME280;10356;50.544;9.642;2023-02-03T11:28:42;98882.59;;;7.25;100.00
20394;BME280;10356;50.544;9.642;2023-02-03T11:31:20;98854.25;;;7.22;100.00
20394;BME280;10356;50.544;9.642;2023-02-03T11:33:51;98850.06;;;7.20;100.00
20394;BME280;10356;50.544;9.642;2023-02-03T11:36:19;98854.41;;;7.19;100.00
20394;BME280;10356;50.544;9.642;2023-02-03T11:38:46;98854.41;;;7.19;100.00
20394;BME280;10356;50.544;9.642;2023-02-03T11:41:17;98867.78;;;7.27;100.00
20394;BME280;10356;50.544;9.642;2023-02-03T11:43:44;98867.31;;;7.21;100.00
20394;BME280;10356;50.544;9.642;2023-02-03T11:46:11;98869.81;;;7.22;100.00
20394;BME280;10356;50.544;9.642;2023-02-03T11:48:49;98868.88;;;7.23;100.00
20394;BME280;10356;50.544;9.642;2023-02-03T11:51:28;98842.91;;;7.25;100.00
20394;BME280;10356;50.544;9.642;2023-02-03T11:54:15;98837.44;;;7.29;100.00
20394;BME280;10356;50.544;9.642;2023-02-03T11:57:05;98846.41;;;7.24;100.00
20394;BME280;10356;50.544;9.642;2023-02-03T12:05:50;98834.09;;;7.27;100.00
20394;BME280;10356;50.544;9.642;2023-02-03T12:08:28;98816.91;;;7.26;100.00
20394;BME280;10356;50.544;9.642;2023-02-03T12:11:07;98826.84;;;7.34;100.00
20394;BME280;10356;50.544;9.642;2023-02-03T12:13:48;98818.41;;;7.30;100.00
20394;BME280;10356;50.544;9.642;2023-02-03T12:19:29;98813.97;;;7.32;100.00
20394;BME280;10356;50.544;9.642;2023-02-03T12:22:04;98831.09;;;7.35;100.00
20394;BME280;10356;50.544;9.642;2023-02-03T12:24:43;98835.19;;;7.39;100.00
20394;BME280;10356;50.544;9.642;2023-02-03T12:27:21;98826.91;;;7.32;100.00
20394;BME280;10356;50.544;9.642;2023-02-03T12:29:54;98825.66;;;7.39;100.00
20394;BME280;10356;50.544;9.642;2023-02-03T12:32:27;98836.78;;;7.41;100.00
20394;BME280;10356;50.544;9.642;2023-02-03T12:35:03;98829.00;;;7.41;100.00
20394;BME280;10356;50.544;9.642;2023-02-03T12:37:42;98813.09;;;7.47;100.00
20394;BME280;10356;50.544;9.642;2023-02-03T12:40:15;98837.38;;;7.46;100.00
20394;BME280;10356;50.544;9.642;2023-02-03T12:42:46;98816.28;;;7.52;100.00
20394;BME280;10356;50.544;9.642;2023-02-03T12:45:19;98820.28;;;7.58;100.00
20394;BME280;10356;50.544;9.642;2023-02-03T12:47:51;98811.09;;;7.52;100.00
20394;BME280;10356;50.544;9.642;2023-02-03T12:50:22;98819.13;;;7.48;100.00
20394;BME280;10356;50.544;9.642;2023-02-03T12:52:56;98807.50;;;7.55;100.00
20394;BME280;10356;50.544;9.642;2023-02-03T12:55:29;98816.69;;;7.60;100.00
20394;BME280;10356;50.544;9.642;2023-02-03T12:58:02;98807.41;;;7.56;100.00
20394;BME280;10356;50.544;9.642;2023-02-03T13:00:38;98810.75;;;7.58;100.00
20394;BME280;10356;50.544;9.642;2023-02-03T13:03:14;98797.69;;;7.60;100.00
20394;BME280;10356;50.544;9.642;2023-02-03T13:05:47;98798.78;;;7.56;100.00
20394;BME280;10356;50.544;9.642;2023-02-03T13:08:21;98798.69;;;7.57;100.00
20394;BME280;10356;50.544;9.642;2023-02-03T13:10:51;98804.97;;;7.53;100.00
20394;BME280;10356;50.544;9.642;2023-02-03T13:13:27;98805.72;;;7.55;100.00
20394;BME280;10356;50.544;9.642;2023-02-03T13:15:56;98808.25;;;7.57;100.00
20394;BME280;10356;50.544;9.642;2023-02-03T13:18:26;98822.72;;;7.61;100.00
20394;BME280;10356;50.544;9.642;2023-02-03T13:20:55;98830.16;;;7.67;100.00
20394;BME280;10356;50.544;9.642;2023-02-03T13:23:23;98834.50;;;7.67;100.00
20394;BME280;10356;50.544;9.642;2023-02-03T13:26:11;98817.69;;;7.74;100.00